• Join FlightAware (Why Join?)
  • Login
  • US Flag 
11:14PM EDT


 

Airport Tracker/Info


-or-


 

Live Flight TrackerFlight Track Log ✈ DAL6234 ✈ 30-Apr-2013 ✈ KSYR - KLGA

Flight Track Log - Related Links

Times and Time Zones

All times are in EDT time to prevent confusion due to time zone crossing. See the DAL6234 flight status page for this flight to view local times or setup timezone preferences in your user account.

Time Position Orientation Groundspeed Altitude Reporting Facility
EDT Latitude Longitude Course Direction KTS MPH feet Rate Location/Type
06:00PM 43.1086 -76.0978 115° Southeast 131 151 1,100  Level Boston Center
06:01PM 43.0897 -76.0425 115° Southeast 166 191 3,600 2,400 Climbing Boston Center
06:03PM 43.0456 -75.9861 137° Southeast 214 246 6,300 2,460 Climbing Boston Center
06:04PM 42.9994 -75.9208 134° Southeast 227 261 8,900 2,520 Climbing Boston Center
06:05PM 42.9433 -75.8497 137° Southeast 253 291 11,400 2,160 Climbing Boston Center
06:06PM 42.8769 -75.7667 137° Southeast 293 337 13,300 2,100 Climbing Boston Center
06:07PM 42.8047 -75.6722 136° Southeast 334 384 15,600 2,160 Climbing Boston Center
06:08PM 42.7303 -75.5750 136° Southeast 359 413 17,700 1,200 Climbing Boston Center
06:09PM 42.6536 -75.4778 137° Southeast 373 429 18,000 120 Climbing Boston Center
06:10PM 42.5628 -75.3633 137° Southeast 394 453 18,000  Level Boston Center
06:11PM 42.4842 -75.2639 137° Southeast 399 459 18,000  Level Boston Center
06:12PM 42.4289 -75.1378 121° Southeast 386 444 18,000  Level Boston Center
06:13PM 42.3817 -75.0092 116° Southeast 386 444 18,000  Level Boston Center
06:14PM 42.3247 -74.8553 117° Southeast 381 438 18,000  Level Boston Center
06:15PM 42.2753 -74.7242 117° Southeast 381 438 18,000  Level Boston Center
06:16PM 42.2278 -74.5964 117° Southeast 381 438 18,000  Level Boston Center
06:17PM 42.1800 -74.4686 117° Southeast 381 438 18,000  Level Boston Center
06:18PM 42.1322 -74.3383 116° Southeast 381 438 18,000  Level Boston Center
06:19PM 42.0781 -74.2164 121° Southeast 381 438 18,000  Level Boston Center
06:20PM 42.0194 -74.0972 123° Southeast 387 445 18,000  Level Boston Center
06:21PM 41.9586 -73.9756 124° Southeast 387 445 18,000  Level Boston Center
06:22PM 41.8956 -73.8569 126° Southeast 387 445 18,000 -240 Level Boston Center
06:23PM 41.7981 -73.8186 164° South 364 419 17,600 -840 Descending Boston Center
06:24PM 41.7083 -73.8222 182° South 358 412 16,400 -1,140 Descending Boston Center
06:25PM 41.6367 -73.8956 217° Southwest 305 351 15,400 -1,200 Descending Boston Center
06:26PM 41.5756 -73.9358 206° Southwest 285 328 14,100 -1,740 Descending Boston Center
06:27PM 41.4500 -73.8833 163° South 288 331 11,200 -1,920 Descending New York TRACON
06:28PM 41.3833 -73.8333 151° Southeast 283 326 9,400 -1,200 Descending New York TRACON
06:29PM 41.3167 -73.7833 151° Southeast 249 287 8,900 -660 Descending New York TRACON
06:30PM 41.2667 -73.7333 143° Southeast 226 260 8,100 -420 Descending New York TRACON
06:31PM 41.2167 -73.6833 143° Southeast 235 270 8,100 -660 Level New York TRACON
06:32PM 41.1500 -73.6333 151° Southeast 239 275 6,800 -1,200 Descending New York TRACON
06:33PM 41.1000 -73.6167 166° South 229 264 5,900 -1,080 Descending New York TRACON
06:34PM 41.0500 -73.6500 207° Southwest 208 239 4,800 -900 Descending New York TRACON
06:35PM 41.0000 -73.6833 207° Southwest 175 201 4,100 -660 Descending New York TRACON
06:36PM 40.9667 -73.7167 217° Southwest 171 197 3,500 -660 Descending New York TRACON
06:37PM 40.9167 -73.7500 207° Southwest 161 185 2,800 -720 Descending New York TRACON